Time;durP1;ratioP1;P1;durP2;ratioP2;P2;SDS_P1;SDS_P2;PMS_P1;PMS_P2;Temp;Humidity;BMP_temperature;BMP_pressure;BME280_temperature;BME280_humidity;BME280_pressure;Samples;Min_cycle;Max_cycle;Signal;HPM_P1;HPM_P2
2023/10/23 03:59:53;;;;;;;;;;;;;;;;;;5016199;28;19932;-78
2023/10/23 04:02:20;;;;;;;;;;;;;;;;;;5018158;28;20412;-78
2023/10/23 04:04:46;;;;;;;;;;;;;;;;;;5019215;28;19932;-77
2023/10/23 04:07:13;;;;;;;;;;;;;;;;;;5013639;28;20302;-77
2023/10/23 04:09:40;;;;;;;;;;;;;;;;;;4996822;28;19930;-77
2023/10/23 04:12:07;;;;;;;;;;;;;;;;;;5004163;28;19980;-80
2023/10/23 04:14:34;;;;;;;;;;;;;;;;;;5004587;28;19925;-79
2023/10/23 04:17:01;;;;;;;;;;;;;;;;;;5008843;28;19937;-79
2023/10/23 04:19:28;;;;;;;;;;;;;;;;;;5013536;28;19998;-76
2023/10/23 04:21:55;;;;;;;;;;;;;;;;;;5008537;28;19954;-77
2023/10/23 04:24:22;;;;;;;;;;;;;;;;;;5006528;28;20397;-79
2023/10/23 04:26:49;;;;;;;;;;;;;;;;;;5004667;28;19925;-79
2023/10/23 04:29:15;;;;;;;;;;;;;;;;;;5004111;28;19926;-79
2023/10/23 04:31:41;;;;;;;;;;;;;;;;;;4998978;28;19921;-75
2023/10/23 04:34:09;;;;;;;;;;;;;;;;;;4995940;28;19933;-77
2023/10/23 04:36:36;;;;;;;;;;;;;;;;;;4996217;28;19979;-77
2023/10/23 04:39:03;;;;;;;;;;;;;;;;;;4995565;28;20410;-76
2023/10/23 04:41:30;;;;;;;;;;;;;;;;;;4996019;28;20446;-76
2023/10/23 04:43:57;;;;;;;;;;;;;;;;;;4996267;28;19933;-74
2023/10/23 04:46:24;;;;;;;;;;;;;;;;;;4995731;28;20401;-74
2023/10/23 04:48:51;;;;;;;;;;;;;;;;;;4996229;28;19930;-74
2023/10/23 04:51:18;;;;;;;;;;;;;;;;;;4996300;28;19926;-74
2023/10/23 04:53:45;;;;;;;;;;;;;;;;;;4995922;28;20105;-73
2023/10/23 04:56:12;;;;;;;;;;;;;;;;;;4995745;28;19948;-73
2023/10/23 04:58:39;;;;;;;;;;;;;;;;;;4996508;28;19926;-72
2023/10/23 05:01:06;;;;;;;;;;;;;;;;;;4996225;28;19925;-74
2023/10/23 05:03:33;;;;;;;;;;;;;;;;;;4997126;28;19926;-76
2023/10/23 05:05:59;;;;;;;;;;;;;;;;;;4996505;28;19926;-76
2023/10/23 05:08:26;;;;;;;;;;;;;;;;;;4995532;28;19926;-73
2023/10/23 05:10:53;;;;;;;;;;;;;;;;;;4995721;28;19948;-74
2023/10/23 05:13:20;;;;;;;;;;;;;;;;;;4995756;28;19926;-75
2023/10/23 05:15:47;;;;;;;;;;;;;;;;;;4995360;28;20391;-75
2023/10/23 05:18:14;;;;;;;;;;;;;;;;;;4995413;28;19925;-75
2023/10/23 05:20:41;;;;;;;;;;;;;;;;;;4995488;28;20379;-76
2023/10/23 05:23:08;;;;;;;;;;;;;;;;;;4995524;28;19925;-75
2023/10/23 05:25:35;;;;;;;;;;;;;;;;;;4995358;28;20383;-77
2023/10/23 05:28:02;;;;;;;;;;;;;;;;;;4995878;28;19929;-75
2023/10/23 05:30:29;;;;;;;;;;;;;;;;;;4995364;28;19930;-76
2023/10/23 05:32:55;;;;;;;;;;;;;;;;;;4995477;28;19925;-76
2023/10/23 05:35:22;;;;;;;;;;;;;;;;;;4995090;28;19933;-77
2023/10/23 05:37:49;;;;;;;;;;;;;;;;;;4996649;28;19926;-77
2023/10/23 05:40:16;;;;;;;;;;;;;;;;;;4994895;28;20280;-77
2023/10/23 05:42:43;;;;;;;;;;;;;;;;;;4995215;28;19933;-77
2023/10/23 05:45:10;;;;;;;;;;;;;;;;;;4994831;28;19933;-77
2023/10/23 05:47:37;;;;;;;;;;;;;;;;;;4995173;28;19926;-77
2023/10/23 05:50:05;;;;;;;;;;;;;;;;;;4995262;28;19925;-73
2023/10/23 05:52:32;;;;;;;;;;;;;;;;;;4994328;28;20298;-73
2023/10/23 05:55:04;;;;;;;;;;;;;;;;;;4994769;28;19926;-72
2023/10/23 05:57:31;;;;;;;;;;;;;;;;;;4994627;28;19926;-73
2023/10/23 05:59:57;;;;;;;;;;;;;;;;;;4994530;28;20383;-72
2023/10/23 06:02:24;;;;;;;;;;;;;;;;;;4994621;28;19932;-72
2023/10/23 06:04:51;;;;;;;;;;;;;;;;;;4994382;28;20402;-72
2023/10/23 06:07:18;;;;;;;;;;;;;;;;;;4994605;28;19937;-72
2023/10/23 06:09:45;;;;;;;;;;;;;;;;;;4994803;28;19948;-72
2023/10/23 06:12:14;;;;;;;;;;;;;;;;;;4994737;28;19929;-72
2023/10/23 06:14:41;;;;;;;;;;;;;;;;;;4994897;28;19925;-72
2023/10/23 06:17:08;;;;;;;;;;;;;;;;;;4996063;28;19933;-74
2023/10/23 06:19:36;;;;;;;;;;;;;;;;;;4996679;28;19976;-73
2023/10/23 06:22:03;;;;;;;;;;;;;;;;;;4996599;28;19926;-74
2023/10/23 06:24:31;;;;;;;;;;;;;;;;;;4996476;28;20012;-73
2023/10/23 06:26:58;;;;;;;;;;;;;;;;;;4996724;28;19926;-73
2023/10/23 06:29:25;;;;;;;;;;;;;;;;;;4996008;28;20379;-73
2023/10/23 06:31:52;;;;;;;;;;;;;;;;;;4996104;28;19932;-73
2023/10/23 06:34:19;;;;;;;;;;;;;;;;;;4995915;28;19953;-73
2023/10/23 06:36:46;;;;;;;;;;;;;;;;;;4995881;28;19980;-73
2023/10/23 06:39:13;;;;;;;;;;;;;;;;;;4996974;28;19937;-72
2023/10/23 06:41:40;;;;;;;;;;;;;;;;;;4996683;28;19926;-73
2023/10/23 06:44:07;;;;;;;;;;;;;;;;;;4996248;28;19933;-73
2023/10/23 06:46:34;;;;;;;;;;;;;;;;;;4996649;28;20031;-73
2023/10/23 06:49:01;;;;;;;;;;;;;;;;;;4996820;28;19925;-73
2023/10/23 06:51:28;;;;;;;;;;;;;;;;;;4997775;28;19926;-73
2023/10/23 06:53:55;;;;;;;;;;;;;;;;;;4998853;28;19926;-73
2023/10/23 06:56:22;;;;;;;;;;;;;;;;;;4998058;28;19933;-73
2023/10/23 06:58:49;;;;;;;;;;;;;;;;;;4998476;28;19936;-73
2023/10/23 07:01:16;;;;;;;;;;;;;;;;;;4997825;28;19926;-73
2023/10/23 07:03:43;;;;;;;;;;;;;;;;;;5001728;28;19929;-73
2023/10/23 07:06:10;;;;;;;;;;;;;;;;;;5002576;28;19936;-73
2023/10/23 07:08:39;;;;;;;;;;;;;;;;;;5001953;28;19926;-72
2023/10/23 07:11:05;;;;;;;;;;;;;;;;;;5001780;28;19926;-72
2023/10/23 07:13:32;;;;;;;;;;;;;;;;;;5001289;28;19933;-72
2023/10/23 07:15:59;;;;;;;;;;;;;;;;;;5000582;28;19926;-72
2023/10/23 07:18:26;;;;;;;;;;;;;;;;;;4998996;28;19933;-73
2023/10/23 07:20:53;;;;;;;;;;;;;;;;;;4997934;28;19941;-74
2023/10/23 07:23:22;;;;;;;;;;;;;;;;;;4998065;28;19949;-73
2023/10/23 07:25:48;;;;;;;;;;;;;;;;;;4997959;28;20020;-73
2023/10/23 07:28:16;;;;;;;;;;;;;;;;;;4997914;28;19973;-73
2023/10/23 07:30:42;;;;;;;;;;;;;;;;;;4998117;28;19948;-73
2023/10/23 07:33:09;;;;;;;;;;;;;;;;;;4998148;28;19926;-74
2023/10/23 07:35:38;;;;;;;;;;;;;;;;;;4997889;28;19948;-73
2023/10/23 07:38:05;;;;;;;;;;;;;;;;;;4997544;28;20028;-73
2023/10/23 07:40:32;;;;;;;;;;;;;;;;;;4997725;28;19933;-73
2023/10/23 07:42:58;;;;;;;;;;;;;;;;;;4997777;28;19933;-73
2023/10/23 07:45:25;;;;;;;;;;;;;;;;;;4997678;28;20012;-72
2023/10/23 07:47:52;;;;;;;;;;;;;;;;;;4997521;28;19933;-73
2023/10/23 07:50:21;;;;;;;;;;;;;;;;;;4997569;28;20354;-72
2023/10/23 07:52:49;;;;;;;;;;;;;;;;;;4997595;28;19948;-73
2023/10/23 07:55:16;;;;;;;;;;;;;;;;;;4997448;28;20031;-73
2023/10/23 07:57:42;;;;;;;;;;;;;;;;;;4997191;28;19925;-73
2023/10/23 08:00:10;;;;;;;;;;;;;;;;;;5001267;28;19925;-73
2023/10/23 08:02:38;;;;;;;;;;;;;;;;;;5003898;28;20469;-73
2023/10/23 08:05:05;;;;;;;;;;;;;;;;;;5004655;28;19930;-73
2023/10/23 08:07:32;;;;;;;;;;;;;;;;;;4997405;28;19933;-73
2023/10/23 08:09:59;;;;;;;;;;;;;;;;;;4996534;28;20406;-73
2023/10/23 08:12:26;;;;;;;;;;;;;;;;;;4996813;28;19926;-73
2023/10/23 08:14:53;;;;;;;;;;;;;;;;;;4995967;28;19925;-73
2023/10/23 08:17:20;;;;;;;;;;;;;;;;;;4996735;28;19926;-73
2023/10/23 08:19:47;;;;;;;;;;;;;;;;;;4996468;28;19926;-73
2023/10/23 08:22:14;;;;;;;;;;;;;;;;;;4996369;28;20016;-73
2023/10/23 08:24:41;;;;;;;;;;;;;;;;;;4996115;28;20410;-73
2023/10/23 08:27:09;;;;;;;;;;;;;;;;;;4996230;28;19926;-74
2023/10/23 08:29:35;;;;;;;;;;;;;;;;;;4996044;28;20387;-73
2023/10/23 08:32:03;;;;;;;;;;;;;;;;;;4996347;28;19932;-73
2023/10/23 08:34:30;;;;;;;;;;;;;;;;;;4995980;28;20393;-73
2023/10/23 08:36:57;;;;;;;;;;;;;;;;;;4996174;28;19926;-73
2023/10/23 08:39:24;;;;;;;;;;;;;;;;;;4995834;28;20311;-73
2023/10/23 08:41:51;;;;;;;;;;;;;;;;;;4996123;28;19925;-73
2023/10/23 08:44:18;;;;;;;;;;;;;;;;;;4996034;28;19948;-73
2023/10/23 08:46:44;;;;;;;;;;;;;;;;;;4995802;28;19936;-73
2023/10/23 08:49:11;;;;;;;;;;;;;;;;;;4995936;28;19933;-73
2023/10/23 08:51:38;;;;;;;;;;;;;;;;;;4995619;28;20410;-73
2023/10/23 08:54:05;;;;;;;;;;;;;;;;;;4995909;28;19963;-73
2023/10/23 08:56:32;;;;;;;;;;;;;;;;;;4995554;28;19926;-72
2023/10/23 08:58:59;;;;;;;;;;;;;;;;;;4995448;28;19925;-71
2023/10/23 09:01:26;;;;;;;;;;;;;;;;;;4995831;28;19933;-70
2023/10/23 09:03:53;;;;;;;;;;;;;;;;;;4995692;28;19926;-72
2023/10/23 09:06:20;;;;;;;;;;;;;;;;;;4996486;28;19926;-72
2023/10/23 09:08:46;;;;;;;;;;;;;;;;;;4995492;28;19926;-74
2023/10/23 09:11:12;;;;;;;;;;;;;;;;;;4995871;28;19933;-73
2023/10/23 09:13:39;;;;;;;;;;;;;;;;;;4995574;28;19922;-71
2023/10/23 09:16:06;;;;;;;;;;;;;;;;;;4995716;28;19933;-72
2023/10/23 09:18:33;;;;;;;;;;;;;;;;;;4995536;28;19925;-74
2023/10/23 09:21:00;;;;;;;;;;;;;;;;;;4995983;28;19926;-73
2023/10/23 09:23:28;;;;;;;;;;;;;;;;;;4995395;28;19926;-73
2023/10/23 09:25:55;;;;;;;;;;;;;;;;;;4995244;28;19954;-73
2023/10/23 09:28:22;;;;;;;;;;;;;;;;;;4995460;28;19933;-73
2023/10/23 09:30:49;;;;;;;;;;;;;;;;;;4995560;28;19949;-73
2023/10/23 09:33:16;;;;;;;;;;;;;;;;;;4995937;28;19930;-73
2023/10/23 09:35:43;;;;;;;;;;;;;;;;;;4995836;28;20379;-72
2023/10/23 09:38:10;;;;;;;;;;;;;;;;;;4995377;28;19926;-73
2023/10/23 09:40:36;;;;;;;;;;;;;;;;;;4995488;28;19932;-73
2023/10/23 09:43:03;;;;;;;;;;;;;;;;;;4995915;28;19926;-73
2023/10/23 09:45:30;;;;;;;;;;;;;;;;;;4995614;28;20299;-73
2023/10/23 09:47:58;;;;;;;;;;;;;;;;;;4995199;28;19937;-73
2023/10/23 09:50:25;;;;;;;;;;;;;;;;;;4995302;28;19934;-73
2023/10/23 09:52:52;;;;;;;;;;;;;;;;;;4995303;28;19925;-73
2023/10/23 09:55:19;;;;;;;;;;;;;;;;;;4995142;28;19933;-73
2023/10/23 09:57:46;;;;;;;;;;;;;;;;;;4994900;28;19937;-73
2023/10/23 10:00:14;;;;;;;;;;;;;;;;;;4994530;28;19926;-73
2023/10/23 10:02:41;;;;;;;;;;;;;;;;;;4994734;28;19932;-73
2023/10/23 10:05:08;;;;;;;;;;;;;;;;;;4994900;28;19926;-73
2023/10/23 10:07:35;;;;;;;;;;;;;;;;;;4994430;28;20383;-74
2023/10/23 10:10:04;;;;;;;;;;;;;;;;;;4994977;28;19933;-74
2023/10/23 10:12:34;;;;;;;;;;;;;;;;;;4995173;28;19980;-74
2023/10/23 10:15:01;;;;;;;;;;;;;;;;;;4995304;28;19926;-74
2023/10/23 10:17:28;;;;;;;;;;;;;;;;;;4995124;28;19926;-74
2023/10/23 10:19:55;;;;;;;;;;;;;;;;;;4995240;28;20398;-74
2023/10/23 10:22:22;;;;;;;;;;;;;;;;;;4995131;28;19926;-74
2023/10/23 10:24:49;;;;;;;;;;;;;;;;;;4994831;28;19934;-74
2023/10/23 10:27:16;;;;;;;;;;;;;;;;;;4994656;28;20391;-74
2023/10/23 10:29:43;;;;;;;;;;;;;;;;;;4995113;28;19926;-74
2023/10/23 10:32:10;;;;;;;;;;;;;;;;;;4995032;28;19976;-74
2023/10/23 10:34:37;;;;;;;;;;;;;;;;;;4994920;28;20056;-74
2023/10/23 10:37:05;;;;;;;;;;;;;;;;;;4995140;28;19925;-73
2023/10/23 10:39:32;;;;;;;;;;;;;;;;;;4998563;28;20438;-73
2023/10/23 10:42:03;;;;;;;;;;;;;;;;;;4999005;28;19926;-74
2023/10/23 10:44:30;;;;;;;;;;;;;;;;;;4998876;28;19976;-76
2023/10/23 10:46:59;;;;;;;;;;;;;;;;;;4998688;28;19925;-77
2023/10/23 10:49:26;;;;;;;;;;;;;;;;;;4998766;28;20339;-77
2023/10/23 10:51:53;;;;;;;;;;;;;;;;;;4999071;28;19926;-76
2023/10/23 10:54:20;;;;;;;;;;;;;;;;;;4998689;28;19925;-76
2023/10/23 10:56:47;;;;;;;;;;;;;;;;;;4998628;28;20367;-77
2023/10/23 10:59:14;;;;;;;;;;;;;;;;;;4997783;28;19925;-74
2023/10/23 11:01:41;;;;;;;;;;;;;;;;;;5084818;23;19932;-80
2023/10/23 11:04:08;;;;;;;;;;;;;;;;;;5060984;28;19979;-80
2023/10/23 11:06:34;;;;;;;;;;;;;;;;;;5062148;28;19931;-82
2023/10/23 11:09:01;;;;;;;;;;;;;;;;;;5061336;28;19924;-81
2023/10/23 11:11:28;;;;;;;;;;;;;;;;;;5045950;28;20297;-81
2023/10/23 11:13:55;;;;;;;;;;;;;;;;;;5047369;28;19952;-80
2023/10/23 11:16:22;;;;;;;;;;;;;;;;;;5044506;28;19926;-79
2023/10/23 11:18:49;;;;;;;;;;;;;;;;;;5040900;28;19925;-78
2023/10/23 11:21:22;;;;;;;;;;;;;;;;;;5041848;28;19929;-77
2023/10/23 11:23:49;;;;;;;;;;;;;;;;;;5044188;28;19925;-78
2023/10/23 11:26:16;;;;;;;;;;;;;;;;;;5045347;28;19925;-78
2023/10/23 11:28:43;;;;;;;;;;;;;;;;;;5045851;28;19925;-77
2023/10/23 11:31:10;;;;;;;;;;;;;;;;;;5045677;28;19925;-78
2023/10/23 11:33:37;;;;;;;;;;;;;;;;;;5045767;28;19925;-78
2023/10/23 11:36:05;;;;;;;;;;;;;;;;;;5046942;28;20294;-78
2023/10/23 11:38:32;;;;;;;;;;;;;;;;;;5047136;28;19925;-78
2023/10/23 11:40:59;;;;;;;;;;;;;;;;;;5047516;28;19929;-78
2023/10/23 11:43:25;;;;;;;;;;;;;;;;;;5045553;28;19952;-78
2023/10/23 11:45:52;;;;;;;;;;;;;;;;;;5046746;28;19925;-78
2023/10/23 11:48:19;;;;;;;;;;;;;;;;;;5046617;28;19932;-79
2023/10/23 11:50:46;;;;;;;;;;;;;;;;;;5046976;28;19929;-79
2023/10/23 11:53:13;;;;;;;;;;;;;;;;;;5047315;28;19929;-80
2023/10/23 11:55:40;;;;;;;;;;;;;;;;;;5045538;28;19925;-79
2023/10/23 11:58:07;;;;;;;;;;;;;;;;;;5052200;28;19925;-80
2023/10/23 12:00:34;;;;;;;;;;;;;;;;;;5050143;28;19925;-79
2023/10/23 12:03:01;;;;;;;;;;;;;;;;;;5051030;28;19925;-79
2023/10/23 12:05:28;;;;;;;;;;;;;;;;;;5051778;28;19931;-79
2023/10/23 12:07:55;;;;;;;;;;;;;;;;;;5057823;28;19932;-80
2023/10/23 12:10:22;;;;;;;;;;;;;;;;;;5058278;28;19909;-78
2023/10/23 12:12:52;;;;;;;;;;;;;;;;;;5058882;28;19956;-78
2023/10/23 12:15:19;;;;;;;;;;;;;;;;;;5042138;28;20325;-78
2023/10/23 12:17:46;;;;;;;;;;;;;;;;;;5039109;28;19931;-78
2023/10/23 12:20:14;;;;;;;;;;;;;;;;;;5039811;28;19932;-78
2023/10/23 12:22:41;;;;;;;;;;;;;;;;;;5041343;28;19965;-79
2023/10/23 12:25:08;;;;;;;;;;;;;;;;;;5048240;28;19931;-79
2023/10/23 12:27:35;;;;;;;;;;;;;;;;;;5049115;28;19932;-79
2023/10/23 12:30:04;;;;;;;;;;;;;;;;;;5048082;28;19925;-79
2023/10/23 12:32:31;;;;;;;;;;;;;;;;;;5048692;28;19925;-78
2023/10/23 12:34:59;;;;;;;;;;;;;;;;;;5048812;28;19932;-79
2023/10/23 12:37:26;;;;;;;;;;;;;;;;;;5047117;28;19929;-79
2023/10/23 12:39:53;;;;;;;;;;;;;;;;;;5046638;28;19925;-78
2023/10/23 12:42:20;;;;;;;;;;;;;;;;;;5048092;28;19931;-79
2023/10/23 12:44:47;;;;;;;;;;;;;;;;;;5047131;28;19989;-78
2023/10/23 12:47:14;;;;;;;;;;;;;;;;;;5045281;28;19931;-78
2023/10/23 12:49:42;;;;;;;;;;;;;;;;;;5039234;28;19925;-77
2023/10/23 12:52:08;;;;;;;;;;;;;;;;;;5036623;28;20016;-77
2023/10/23 12:54:35;;;;;;;;;;;;;;;;;;5036017;28;20397;-78
2023/10/23 12:57:03;;;;;;;;;;;;;;;;;;5037879;28;19926;-77
2023/10/23 12:59:30;;;;;;;;;;;;;;;;;;5035020;28;19948;-76
2023/10/23 13:01:57;;;;;;;;;;;;;;;;;;5035031;28;19925;-76
2023/10/23 13:04:24;;;;;;;;;;;;;;;;;;5035579;28;20020;-78
2023/10/23 13:06:51;;;;;;;;;;;;;;;;;;5035461;28;19948;-77
2023/10/23 13:09:18;;;;;;;;;;;;;;;;;;5035054;28;19932;-77
2023/10/23 13:11:45;;;;;;;;;;;;;;;;;;5035038;28;19925;-77
2023/10/23 13:14:12;;;;;;;;;;;;;;;;;;5035224;28;19925;-77
2023/10/23 13:16:39;;;;;;;;;;;;;;;;;;5034917;28;19925;-75
2023/10/23 13:19:06;;;;;;;;;;;;;;;;;;5034986;28;19929;-76
2023/10/23 13:21:33;;;;;;;;;;;;;;;;;;5034771;28;19925;-76
2023/10/23 13:24:00;;;;;;;;;;;;;;;;;;5034680;28;19925;-77
2023/10/23 13:26:27;;;;;;;;;;;;;;;;;;5034586;28;20323;-77
2023/10/23 13:28:54;;;;;;;;;;;;;;;;;;5034651;28;19925;-76
2023/10/23 13:31:21;;;;;;;;;;;;;;;;;;5034790;28;19932;-77
2023/10/23 13:33:47;;;;;;;;;;;;;;;;;;5035146;28;19925;-77
2023/10/23 13:36:14;;;;;;;;;;;;;;;;;;5036224;28;19933;-77
2023/10/23 13:38:41;;;;;;;;;;;;;;;;;;5035300;28;19933;-77
2023/10/23 13:41:08;;;;;;;;;;;;;;;;;;5035299;28;19925;-76
2023/10/23 13:43:35;;;;;;;;;;;;;;;;;;5034816;28;19925;-77
2023/10/23 13:46:02;;;;;;;;;;;;;;;;;;5034880;28;20310;-77
2023/10/23 13:48:29;;;;;;;;;;;;;;;;;;5037211;28;20465;-77
2023/10/23 13:50:56;;;;;;;;;;;;;;;;;;5035540;28;19932;-77
2023/10/23 13:53:23;;;;;;;;;;;;;;;;;;5035428;28;19948;-77
2023/10/23 13:55:50;;;;;;;;;;;;;;;;;;5035792;28;19925;-76
2023/10/23 13:58:18;;;;;;;;;;;;;;;;;;5035932;28;19937;-77
2023/10/23 14:00:45;;;;;;;;;;;;;;;;;;5036465;28;19925;-77
2023/10/23 14:03:12;;;;;;;;;;;;;;;;;;5035932;28;20298;-76
2023/10/23 14:05:39;;;;;;;;;;;;;;;;;;5035432;28;20430;-77
2023/10/23 14:08:05;;;;;;;;;;;;;;;;;;5043061;28;19929;-77
2023/10/23 14:10:32;;;;;;;;;;;;;;;;;;5037010;28;19925;-78
2023/10/23 14:12:59;;;;;;;;;;;;;;;;;;5039939;28;19925;-78
2023/10/23 14:15:26;;;;;;;;;;;;;;;;;;5042968;28;19932;-78
2023/10/23 14:17:53;;;;;;;;;;;;;;;;;;5034826;28;19925;-77
2023/10/23 14:20:20;;;;;;;;;;;;;;;;;;5034580;28;20015;-76
2023/10/23 14:22:47;;;;;;;;;;;;;;;;;;5034219;28;19932;-76
2023/10/23 14:25:14;;;;;;;;;;;;;;;;;;5033901;28;19932;-76
2023/10/23 14:27:41;;;;;;;;;;;;;;;;;;5035730;28;19924;-77
2023/10/23 14:30:08;;;;;;;;;;;;;;;;;;5040492;28;19925;-78
2023/10/23 14:32:35;;;;;;;;;;;;;;;;;;5039904;28;20000;-78
2023/10/23 14:35:02;;;;;;;;;;;;;;;;;;5038114;28;19932;-78
2023/10/23 14:37:29;;;;;;;;;;;;;;;;;;5037710;28;19925;-79
2023/10/23 14:39:56;;;;;;;;;;;;;;;;;;5037210;28;19925;-79
2023/10/23 14:42:23;;;;;;;;;;;;;;;;;;5036950;28;19925;-78
2023/10/23 14:44:50;;;;;;;;;;;;;;;;;;5038349;28;19980;-78
2023/10/23 14:47:17;;;;;;;;;;;;;;;;;;5038883;28;19932;-80
2023/10/23 14:49:44;;;;;;;;;;;;;;;;;;5037411;28;19932;-77
2023/10/23 14:52:11;;;;;;;;;;;;;;;;;;5037554;28;19932;-79
2023/10/23 14:54:38;;;;;;;;;;;;;;;;;;5038366;28;19929;-80
2023/10/23 14:57:05;;;;;;;;;;;;;;;;;;5038893;28;20313;-78
2023/10/23 14:59:31;;;;;;;;;;;;;;;;;;5038159;28;19925;-78
2023/10/23 15:01:58;;;;;;;;;;;;;;;;;;5038383;28;19925;-78
2023/10/23 15:04:26;;;;;;;;;;;;;;;;;;5036789;28;19925;-79
2023/10/23 15:06:53;;;;;;;;;;;;;;;;;;5036501;28;19947;-79
2023/10/23 15:09:20;;;;;;;;;;;;;;;;;;5036130;28;19932;-79
2023/10/23 15:11:47;;;;;;;;;;;;;;;;;;5036047;28;19925;-79
2023/10/23 15:14:14;;;;;;;;;;;;;;;;;;5035803;28;19925;-78
2023/10/23 15:16:41;;;;;;;;;;;;;;;;;;5035430;28;20271;-79
2023/10/23 15:19:08;;;;;;;;;;;;;;;;;;5035581;28;19929;-78
2023/10/23 15:21:35;;;;;;;;;;;;;;;;;;5034818;28;19979;-78
2023/10/23 15:24:02;;;;;;;;;;;;;;;;;;5037968;28;19925;-78
2023/10/23 15:26:29;;;;;;;;;;;;;;;;;;5038430;28;19933;-78
2023/10/23 15:28:56;;;;;;;;;;;;;;;;;;5038455;28;19925;-78
2023/10/23 15:31:23;;;;;;;;;;;;;;;;;;5037681;28;19932;-77
2023/10/23 15:33:50;;;;;;;;;;;;;;;;;;5037565;28;19932;-78
2023/10/23 15:36:17;;;;;;;;;;;;;;;;;;5037673;28;19925;-77
2023/10/23 15:38:44;;;;;;;;;;;;;;;;;;5037974;28;19925;-77
2023/10/23 15:41:11;;;;;;;;;;;;;;;;;;5037670;28;20413;-77
2023/10/23 15:43:38;;;;;;;;;;;;;;;;;;5038057;28;19925;-78
2023/10/23 15:46:05;;;;;;;;;;;;;;;;;;5037882;28;19929;-79
2023/10/23 15:48:32;;;;;;;;;;;;;;;;;;5037508;28;20370;-78
2023/10/23 15:50:59;;;;;;;;;;;;;;;;;;5037103;28;19929;-78
2023/10/23 15:53:26;;;;;;;;;;;;;;;;;;5037719;28;19925;-78
2023/10/23 15:55:53;;;;;;;;;;;;;;;;;;5037385;28;20008;-77
2023/10/23 15:58:23;;;;;;;;;;;26.10;35.80;;;;;;5037368;28;19929;-77
2023/10/23 16:00:50;;;;;;;;;;;12.60;99.90;;;;;;5037062;28;19960;-77
2023/10/23 16:03:16;;;;;;;;;;;12.30;99.90;;;;;;5036759;28;19925;-77
2023/10/23 16:05:43;;;;;;;;;;;12.30;99.90;;;;;;5037255;28;20349;-78
2023/10/23 16:08:11;;;;;;;;;;;12.30;99.90;;;;;;5037235;28;19932;-78
2023/10/23 16:10:43;;;;;;;;;;;12.30;99.90;;;;;;5036469;28;19932;-78
2023/10/23 16:13:10;;;;;;;;;;;12.20;99.90;;;;;;5037505;28;20291;-77
2023/10/23 16:15:38;;;;;;;;;;;12.20;99.90;;;;;;5037447;28;19951;-78
2023/10/23 16:18:05;;;;;;;;;;;12.10;99.90;;;;;;5038223;28;20395;-78
2023/10/23 16:20:32;;;;;;;;;;;12.10;99.90;;;;;;5036858;28;19925;-75
2023/10/23 16:22:59;;;;;;;;;;;12.10;99.90;;;;;;5036281;28;19983;-75
2023/10/23 16:25:26;;;;;;;;;;;12.00;99.90;;;;;;5036289;28;19931;-73
2023/10/23 16:27:54;;;;;;;;;;;12.00;99.90;;;;;;5036120;28;19934;-75
2023/10/23 16:30:21;;;;;;;;;;;12.00;99.90;;;;;;5035729;28;19995;-74
2023/10/23 16:32:51;;;;;;;;;;;12.00;99.90;;;;;;5035848;28;19925;-74
2023/10/23 16:35:18;;;;;;;;;;;11.90;99.90;;;;;;5035272;28;19925;-75
2023/10/23 16:37:45;;;;;;;;;;;11.90;99.90;;;;;;5035651;28;19932;-75
2023/10/23 16:40:12;;;;;;;;;;;11.90;99.90;;;;;;5035425;28;20026;-74
2023/10/23 16:42:38;;;;;;;;;;;11.80;99.90;;;;;;5035672;28;19925;-74
2023/10/23 16:45:05;;;;;;;;;;;11.80;99.90;;;;;;5035867;28;19955;-74
2023/10/23 16:47:32;;;;;;;;;;;11.80;99.90;;;;;;5035723;28;20374;-74
2023/10/23 16:50:00;;;;;;;;;;;11.70;99.90;;;;;;5035484;28;19929;-75
2023/10/23 16:52:26;;;;;;;;;;;11.70;99.90;;;;;;5035806;28;19932;-74
2023/10/23 16:54:53;;;;;;;;;;;11.70;99.90;;;;;;5035577;28;19933;-74
2023/10/23 16:57:20;;;;;;;;;;;11.70;99.90;;;;;;5035915;28;20000;-75
2023/10/23 16:59:46;;;;;;;;;;;11.70;99.90;;;;;;5035071;28;19925;-74
2023/10/23 17:02:13;;;;;;;;;;;11.70;99.90;;;;;;5075372;23;20294;-74
2023/10/23 17:04:40;;;;;;;;;;;11.70;99.90;;;;;;5056685;28;19925;-72
2023/10/23 17:07:08;;;;;;;;;;;11.70;99.90;;;;;;5057044;28;19932;-73
2023/10/23 17:09:34;;;;;;;;;;;;;;;;;;5056098;28;19925;-73
2023/10/23 17:12:01;;;;;;;;;;;;;;;;;;5039584;28;19948;-73
2023/10/23 17:14:28;;;;;;;;;;;;;;;;;;5036872;28;19931;-75
2023/10/23 17:16:55;;;;;;;;;;;;;;;;;;5035734;28;19925;-74
2023/10/23 17:19:22;;;;;;;;;;;;;;;;;;5035398;28;19932;-74
2023/10/23 17:21:49;;;;;;;;;;;;;;;;;;5035327;28;19925;-73
2023/10/23 17:24:16;;;;;;;;;;;;;;;;;;5034970;28;19936;-73
2023/10/23 17:26:43;;;;;;;;;;;;;;;;;;5035239;28;19925;-74
2023/10/23 17:29:10;;;;;;;;;;;;;;;;;;5035331;28;20297;-74
2023/10/23 17:31:37;;;;;;;;;;;;;;;;;;5035481;28;20048;-73
2023/10/23 17:34:05;;;;;;;;;;;;;;;;;;5036018;28;19932;-74
2023/10/23 17:36:34;;;;;;;;;;;;;;;;;;5035751;28;19932;-73
2023/10/23 17:39:01;;;;;;;;;;;;;;;;;;5034624;28;20472;-74
2023/10/23 17:41:28;;;;;;;;;;;;;;;;;;5035737;28;19925;-74
2023/10/23 17:43:55;;;;;;;;;;;;;;;;;;5035722;28;19925;-75
2023/10/23 17:46:21;;;;;;;;;;;;;;;;;;5035293;28;19925;-73
2023/10/23 17:48:48;;;;;;;;;;;;;;;;;;5038207;28;19925;-73
2023/10/23 17:51:15;;;;;;;;;;;;;;;;;;5059126;28;19940;-72
2023/10/23 17:53:44;;;;;;;;;;;;;;;;;;5049068;28;19920;-73
2023/10/23 17:56:11;;;;;;;;;;;;;;;;;;5042454;28;19926;-73
2023/10/23 17:58:38;;;;;;;;;;;;;;;;;;5035016;28;20031;-73
2023/10/23 18:01:05;;;;;;;;;;;;;;;;;;5035042;28;19925;-73
2023/10/23 18:03:32;;;;;;;;;;;;;;;;;;5034765;28;19925;-72
2023/10/23 18:05:59;;;;;;;;;;;;;;;;;;5034656;28;19932;-72
2023/10/23 18:08:26;;;;;;;;;;;;;;;;;;5034747;28;19929;-73
2023/10/23 18:10:53;;;;;;;;;;;;;;;;;;5034874;28;19933;-73
2023/10/23 18:13:19;;;;;;;;;;;;;;;;;;5035192;28;20305;-73
2023/10/23 18:15:46;;;;;;;;;;;;;;;;;;5034493;28;19929;-73
2023/10/23 18:18:14;;;;;;;;;;;;;;;;;;5034599;28;20405;-73
2023/10/23 18:20:41;;;;;;;;;;;;;;;;;;5034982;28;19979;-74
2023/10/23 18:23:08;;;;;;;;;;;;;;;;;;5035849;28;19932;-74
2023/10/23 18:25:35;;;;;;;;;;;;;;;;;;5037139;28;19932;-73
2023/10/23 18:28:02;;;;;;;;;;;;;;;;;;5036297;28;19925;-74
2023/10/23 18:30:29;;;;;;;;;;;;;;;;;;5035692;28;19925;-74
2023/10/23 18:32:56;;;;;;;;;;;;;;;;;;5035870;28;19936;-74
2023/10/23 18:35:23;;;;;;;;;;;;;;;;;;5035862;28;19932;-74
2023/10/23 18:37:50;;;;;;;;;;;;;;;;;;5035715;28;19929;-73
2023/10/23 18:40:17;;;;;;;;;;;;;;;;;;5035736;28;19925;-74
2023/10/23 18:42:44;;;;;;;;;;;;;;;;;;5034835;28;19932;-74
2023/10/23 18:45:11;;;;;;;;;;;;;;;;;;5035690;28;19932;-74
2023/10/23 18:47:38;;;;;;;;;;;;;;;;;;5035549;28;19925;-74
2023/10/23 18:50:05;;;;;;;;;;;;;;;;;;5035778;28;19929;-75
2023/10/23 18:52:32;;;;;;;;;;;;;;;;;;5034692;28;19925;-74
2023/10/23 18:54:59;;;;;;;;;;;;;;;;;;5035636;28;19925;-75
2023/10/23 18:57:26;;;;;;;;;;;;;;;;;;5034610;28;19929;-75
2023/10/23 18:59:53;;;;;;;;;;;;;;;;;;5038027;28;19925;-76
2023/10/23 19:02:20;;;;;;;;;;;;;;;;;;5039071;28;19984;-74
2023/10/23 19:04:47;;;;;;;;;;;;;;;;;;5038263;28;19925;-76
2023/10/23 19:07:14;;;;;;;;;;;;;;;;;;5039077;28;19925;-76
2023/10/23 19:09:41;;;;;;;;;;;;;;;;;;5039301;28;19925;-75
2023/10/23 19:12:08;;;;;;;;;;;;;;;;;;5038631;28;19975;-75
2023/10/23 19:14:35;;;;;;;;;;;;;;;;;;5039002;28;19931;-77
2023/10/23 19:17:03;;;;;;;;;;;;;;;;;;5039764;28;19925;-74
2023/10/23 19:19:30;;;;;;;;;;;;;;;;;;5038220;28;20354;-75
2023/10/23 19:21:58;;;;;;;;;;;;;;;;;;5038387;28;19925;-75
2023/10/23 19:24:24;;;;;;;;;;;;;;;;;;5038174;28;19932;-76
2023/10/23 19:26:52;;;;;;;;;;;;;;;;;;5037642;28;20397;-76
2023/10/23 19:29:22;;;;;;;;;;;;;;;;;;5037720;28;20015;-76
2023/10/23 19:31:49;;;;;;;;;;;;;;;;;;5037845;28;19932;-76
2023/10/23 19:34:16;;;;;;;;;;;;;;;;;;5039252;28;20004;-76
2023/10/23 19:36:44;;;;;;;;;;;;;;;;;;5040525;28;19925;-76
2023/10/23 19:39:10;;;;;;;;;;;;;;;;;;5039713;28;20298;-76
2023/10/23 19:41:37;;;;;;;;;;;;;;;;;;5039184;28;19931;-76
2023/10/23 19:44:04;;;;;;;;;;;;;;;;;;5038313;28;19948;-76
2023/10/23 19:46:31;;;;;;;;;;;;;;;;;;5036859;28;19925;-75
2023/10/23 19:48:59;;;;;;;;;;;;;;;;;;5036678;28;19925;-75
2023/10/23 19:51:26;;;;;;;;;;;;;;;;;;5036491;28;19932;-76
2023/10/23 19:53:53;;;;;;;;;;;;;;;;;;5036683;28;20010;-76
2023/10/23 19:56:20;;;;;;;;;;;;;;;;;;5036693;28;19925;-74
2023/10/23 19:58:47;;;;;;;;;;;;;;;;;;5036408;28;19983;-75
2023/10/23 20:01:15;;;;;;;;;;;;;;;;;;5036153;28;19932;-76
2023/10/23 20:03:42;;;;;;;;;;;;;;;;;;5036076;28;19928;-76
2023/10/23 20:06:11;;;;;;;;;;;;;;;;;;5036552;28;19925;-77
2023/10/23 20:08:38;;;;;;;;;;;;;;;;;;5036230;28;20298;-76
2023/10/23 20:11:05;;;;;;;;;;;;;;;;;;5035283;28;19932;-76
2023/10/23 20:13:32;;;;;;;;;;;;;;;;;;5036625;28;19932;-76
2023/10/23 20:15:59;;;;;;;;;;;;;;;;;;5036133;28;19932;-76
2023/10/23 20:18:26;;;;;;;;;;;;;;;;;;5035797;28;20394;-76
2023/10/23 20:20:53;;;;;;;;;;;;;;;;;;5036108;28;19971;-76
2023/10/23 20:23:20;;;;;;;;;;;;;;;;;;5036360;28;19925;-76
2023/10/23 20:25:48;;;;;;;;;;;;;;;;;;5036079;28;19936;-76
2023/10/23 20:28:14;;;;;;;;;;;;;;;;;;5036026;28;19925;-75
2023/10/23 20:30:42;;;;;;;;;;;;;;;;;;5035624;28;20366;-75